Airfield :
LOGIN :

Register | Disclaimer

   EN    FR    IT 

 










Legend :    VFR   Marginal VFR   IFR   Intensive IFR   Very Intensive IFR
Visi :
Ceiling :
>= 8 km
>= 3000ft
5 to 8 km
1000 to 3000 ft
1500m to 5 km
500 to 1000 ft
800 to 1500m
200 to 500 ft
< 800m
< 200 ft
Symbols :   Thunderstorms  Fog  Heavy snow  Heavy precipitations  Wind > 20 kt
SIGMETs :     Misc.  Thunderstorms  Icing  Turbulence  Mountain Waves  Volcanic Ashes







- Airport Elevation : 82 ft
- IATA code : QIE
- Download approach charts


LFMI - Istres

CURRENT METAR :
  • 171100Z AUTO 10006KT 9999 FEW003 BKN019 14/07 Q1029 TEMPO 17010KT

EXPIRED METARs :
  • 171030Z AUTO 11006KT 080V140 9999 FEW004 SCT019 14/07 Q1029 NOSIG
  • 171000Z AUTO 10006KT 9999 FEW004 BKN018 13/08 Q1029 TEMPO 17010KT 2500 BR BKN010
  • 170930Z AUTO 06004KT 030V090 9999 BKN018 12/07 Q1029 TEMPO 17010KT 2500 BR BKN010
  • 170900Z AUTO 02006KT 9999 FEW003 10/04 Q1029 TEMPO 2500 BR BKN010
  • 170830Z AUTO 02007KT 9999 BKN016 08/04 Q1029 TEMPO 0500 FG BECMG 17010KT BKN010

TAF TAF LFMI
Valid from the 17 at 09:00 until the 18 at 09:00 UTC


170800Z 1709/1809 07005KT CAVOK
TEMPO 1709/1711 2500 BR BKN010
TEMPO 1711/1716 17010KT
No reported NOTAMs for that airfield.



MET'MAP, your aeronautical weather chart ! - Copyright ORBIFLY December 2007 - Disclaimer

ORBIFLY MET'MAP TEAM :

Programming & Development : Alexandra Zaïnal
Concept & Development : Baudouin d'Aumeries
Co-Development & Prog : Marc-Olivier Méhu
Technical & hardware support : Manuel Goepfert

Contact : metmap@orbifly.com




SOURCES & CREDITS :

   NOAA